sensor_id;sensor_type;location;lat;lon;timestamp;P1;durP1;ratioP1;P2;durP2;ratioP2
77326;SDS011;66399;52.322;20.980;2023-05-16T00:06:12;3.80;;;2.40;;
77326;SDS011;66399;52.322;20.980;2023-05-16T00:10:18;3.90;;;2.50;;
77326;SDS011;66399;52.322;20.980;2023-05-16T00:14:23;5.00;;;2.60;;
77326;SDS011;66399;52.322;20.980;2023-05-16T00:18:29;4.00;;;2.40;;
77326;SDS011;66399;52.322;20.980;2023-05-16T00:30:42;4.40;;;2.60;;
77326;SDS011;66399;52.322;20.980;2023-05-16T00:38:50;6.20;;;3.10;;
77326;SDS011;66399;52.322;20.980;2023-05-16T00:46:59;6.30;;;2.80;;
77326;SDS011;66399;52.322;20.980;2023-05-16T00:51:05;5.30;;;3.10;;
77326;SDS011;66399;52.322;20.980;2023-05-16T00:55:12;5.50;;;3.30;;
77326;SDS011;66399;52.322;20.980;2023-05-16T01:03:21;4.70;;;2.60;;
77326;SDS011;66399;52.322;20.980;2023-05-16T01:11:32;5.00;;;3.40;;
77326;SDS011;66399;52.322;20.980;2023-05-16T01:15:38;5.30;;;3.00;;
77326;SDS011;66399;52.322;20.980;2023-05-16T01:24:13;4.30;;;2.90;;
77326;SDS011;66399;52.322;20.980;2023-05-16T01:28:24;7.10;;;3.20;;
77326;SDS011;66399;52.322;20.980;2023-05-16T01:32:30;6.20;;;3.20;;
77326;SDS011;66399;52.322;20.980;2023-05-16T01:40:41;5.50;;;3.50;;
77326;SDS011;66399;52.322;20.980;2023-05-16T01:44:49;5.40;;;3.40;;
77326;SDS011;66399;52.322;20.980;2023-05-16T01:48:57;5.30;;;3.40;;
77326;SDS011;66399;52.322;20.980;2023-05-16T01:53:06;4.90;;;3.30;;
77326;SDS011;66399;52.322;20.980;2023-05-16T01:57:14;5.60;;;3.10;;
77326;SDS011;66399;52.322;20.980;2023-05-16T02:01:19;5.50;;;3.50;;
77326;SDS011;66399;52.322;20.980;2023-05-16T02:05:25;5.20;;;3.60;;
77326;SDS011;66399;52.322;20.980;2023-05-16T02:09:30;5.40;;;3.40;;
77326;SDS011;66399;52.322;20.980;2023-05-16T02:13:36;5.20;;;3.80;;
77326;SDS011;66399;52.322;20.980;2023-05-16T02:17:41;4.80;;;3.20;;
77326;SDS011;66399;52.322;20.980;2023-05-16T02:21:46;6.70;;;4.10;;
77326;SDS011;66399;52.322;20.980;2023-05-16T02:25:51;5.60;;;4.00;;
77326;SDS011;66399;52.322;20.980;2023-05-16T02:34:00;5.40;;;3.60;;
77326;SDS011;66399;52.322;20.980;2023-05-16T02:38:05;5.80;;;3.60;;
77326;SDS011;66399;52.322;20.980;2023-05-16T02:42:10;5.30;;;3.30;;
77326;SDS011;66399;52.322;20.980;2023-05-16T02:46:25;5.30;;;3.70;;
77326;SDS011;66399;52.322;20.980;2023-05-16T02:50:31;5.00;;;3.60;;
77326;SDS011;66399;52.322;20.980;2023-05-16T02:54:36;6.30;;;3.70;;
77326;SDS011;66399;52.322;20.980;2023-05-16T02:58:42;6.70;;;3.80;;
77326;SDS011;66399;52.322;20.980;2023-05-16T03:02:47;6.20;;;3.70;;
77326;SDS011;66399;52.322;20.980;2023-05-16T03:06:52;7.20;;;3.80;;
77326;SDS011;66399;52.322;20.980;2023-05-16T03:15:01;5.50;;;3.50;;
77326;SDS011;66399;52.322;20.980;2023-05-16T03:19:06;7.20;;;3.70;;
77326;SDS011;66399;52.322;20.980;2023-05-16T03:23:12;6.90;;;4.20;;
77326;SDS011;66399;52.322;20.980;2023-05-16T03:27:17;6.90;;;3.90;;
77326;SDS011;66399;52.322;20.980;2023-05-16T03:31:22;5.10;;;3.40;;
77326;SDS011;66399;52.322;20.980;2023-05-16T03:35:27;5.50;;;3.60;;
77326;SDS011;66399;52.322;20.980;2023-05-16T03:39:32;4.90;;;3.20;;
77326;SDS011;66399;52.322;20.980;2023-05-16T03:43:37;4.70;;;3.40;;
77326;SDS011;66399;52.322;20.980;2023-05-16T03:47:43;4.30;;;3.10;;
77326;SDS011;66399;52.322;20.980;2023-05-16T03:51:48;4.70;;;3.20;;
77326;SDS011;66399;52.322;20.980;2023-05-16T03:55:53;4.90;;;3.20;;
77326;SDS011;66399;52.322;20.980;2023-05-16T04:04:02;4.40;;;3.20;;
77326;SDS011;66399;52.322;20.980;2023-05-16T04:08:07;5.40;;;3.40;;
77326;SDS011;66399;52.322;20.980;2023-05-16T04:12:13;5.20;;;3.40;;
77326;SDS011;66399;52.322;20.980;2023-05-16T04:16:18;7.70;;;4.50;;
77326;SDS011;66399;52.322;20.980;2023-05-16T04:20:23;6.10;;;3.80;;
77326;SDS011;66399;52.322;20.980;2023-05-16T04:28:32;4.90;;;3.60;;
77326;SDS011;66399;52.322;20.980;2023-05-16T04:36:41;4.80;;;3.50;;
77326;SDS011;66399;52.322;20.980;2023-05-16T04:44:49;5.00;;;3.30;;
77326;SDS011;66399;52.322;20.980;2023-05-16T04:48:55;4.80;;;3.20;;
77326;SDS011;66399;52.322;20.980;2023-05-16T04:53:01;8.30;;;4.10;;
77326;SDS011;66399;52.322;20.980;2023-05-16T05:01:09;5.10;;;3.50;;
77326;SDS011;66399;52.322;20.980;2023-05-16T05:05:14;5.50;;;3.80;;
77326;SDS011;66399;52.322;20.980;2023-05-16T05:09:19;5.30;;;3.40;;
77326;SDS011;66399;52.322;20.980;2023-05-16T05:13:25;5.70;;;3.80;;
77326;SDS011;66399;52.322;20.980;2023-05-16T05:17:30;6.90;;;4.40;;
77326;SDS011;66399;52.322;20.980;2023-05-16T05:21:35;7.40;;;4.30;;
77326;SDS011;66399;52.322;20.980;2023-05-16T05:25:40;9.90;;;5.40;;
77326;SDS011;66399;52.322;20.980;2023-05-16T05:29:45;5.90;;;4.00;;
77326;SDS011;66399;52.322;20.980;2023-05-16T05:33:51;6.10;;;4.00;;
77326;SDS011;66399;52.322;20.980;2023-05-16T05:37:56;7.30;;;4.10;;
77326;SDS011;66399;52.322;20.980;2023-05-16T05:42:01;7.80;;;4.20;;
77326;SDS011;66399;52.322;20.980;2023-05-16T05:46:07;6.10;;;4.30;;
77326;SDS011;66399;52.322;20.980;2023-05-16T05:50:12;6.50;;;4.20;;
77326;SDS011;66399;52.322;20.980;2023-05-16T05:54:18;5.90;;;4.00;;
77326;SDS011;66399;52.322;20.980;2023-05-16T05:58:23;5.90;;;4.20;;
77326;SDS011;66399;52.322;20.980;2023-05-16T06:02:29;8.70;;;4.60;;
77326;SDS011;66399;52.322;20.980;2023-05-16T06:06:34;5.70;;;4.70;;
77326;SDS011;66399;52.322;20.980;2023-05-16T06:10:39;6.30;;;4.00;;
77326;SDS011;66399;52.322;20.980;2023-05-16T06:14:45;5.30;;;4.20;;
77326;SDS011;66399;52.322;20.980;2023-05-16T06:18:50;6.90;;;4.60;;
77326;SDS011;66399;52.322;20.980;2023-05-16T06:22:55;8.70;;;4.20;;
77326;SDS011;66399;52.322;20.980;2023-05-16T06:27:00;9.40;;;5.00;;
77326;SDS011;66399;52.322;20.980;2023-05-16T06:31:05;6.10;;;4.10;;
77326;SDS011;66399;52.322;20.980;2023-05-16T06:35:10;6.40;;;4.50;;
77326;SDS011;66399;52.322;20.980;2023-05-16T06:39:16;6.60;;;4.60;;
77326;SDS011;66399;52.322;20.980;2023-05-16T06:43:21;5.90;;;4.10;;
77326;SDS011;66399;52.322;20.980;2023-05-16T06:47:26;6.90;;;4.30;;
77326;SDS011;66399;52.322;20.980;2023-05-16T06:51:31;5.50;;;3.60;;
77326;SDS011;66399;52.322;20.980;2023-05-16T06:55:36;8.90;;;4.00;;
77326;SDS011;66399;52.322;20.980;2023-05-16T06:59:41;6.50;;;4.40;;
77326;SDS011;66399;52.322;20.980;2023-05-16T07:03:47;6.10;;;4.20;;
77326;SDS011;66399;52.322;20.980;2023-05-16T07:07:52;7.50;;;4.10;;
77326;SDS011;66399;52.322;20.980;2023-05-16T07:11:57;7.40;;;4.20;;
77326;SDS011;66399;52.322;20.980;2023-05-16T07:16:02;6.70;;;5.40;;
77326;SDS011;66399;52.322;20.980;2023-05-16T07:20:08;6.60;;;4.30;;
77326;SDS011;66399;52.322;20.980;2023-05-16T07:24:16;5.70;;;3.90;;
77326;SDS011;66399;52.322;20.980;2023-05-16T07:28:21;6.20;;;3.90;;
77326;SDS011;66399;52.322;20.980;2023-05-16T07:32:27;6.30;;;3.60;;
77326;SDS011;66399;52.322;20.980;2023-05-16T07:36:32;5.10;;;3.80;;
77326;SDS011;66399;52.322;20.980;2023-05-16T07:40:46;5.50;;;3.50;;
77326;SDS011;66399;52.322;20.980;2023-05-16T07:44:51;4.20;;;3.40;;
77326;SDS011;66399;52.322;20.980;2023-05-16T07:48:56;4.20;;;3.10;;
77326;SDS011;66399;52.322;20.980;2023-05-16T07:53:09;5.90;;;3.10;;
77326;SDS011;66399;52.322;20.980;2023-05-16T07:57:14;4.30;;;2.70;;
77326;SDS011;66399;52.322;20.980;2023-05-16T08:01:20;5.20;;;3.10;;
77326;SDS011;66399;52.322;20.980;2023-05-16T08:05:37;5.60;;;2.80;;
77326;SDS011;66399;52.322;20.980;2023-05-16T08:09:43;5.50;;;2.70;;
77326;SDS011;66399;52.322;20.980;2023-05-16T08:18:12;4.00;;;2.90;;
77326;SDS011;66399;52.322;20.980;2023-05-16T08:22:32;6.80;;;2.70;;
77326;SDS011;66399;52.322;20.980;2023-05-16T08:26:37;3.70;;;2.90;;
77326;SDS011;66399;52.322;20.980;2023-05-16T08:39:30;3.80;;;2.50;;
77326;SDS011;66399;52.322;20.980;2023-05-16T08:43:35;3.90;;;2.50;;
77326;SDS011;66399;52.322;20.980;2023-05-16T09:00:56;4.10;;;2.20;;
77326;SDS011;66399;52.322;20.980;2023-05-16T09:05:01;4.10;;;2.10;;
77326;SDS011;66399;52.322;20.980;2023-05-16T09:13:22;2.70;;;1.90;;
77326;SDS011;66399;52.322;20.980;2023-05-16T09:17:30;3.10;;;1.80;;
77326;SDS011;66399;52.322;20.980;2023-05-16T09:21:43;3.60;;;1.70;;
77326;SDS011;66399;52.322;20.980;2023-05-16T09:25:51;2.90;;;1.90;;
77326;SDS011;66399;52.322;20.980;2023-05-16T09:35:09;3.00;;;1.60;;
77326;SDS011;66399;52.322;20.980;2023-05-16T09:39:15;2.40;;;1.60;;
77326;SDS011;66399;52.322;20.980;2023-05-16T09:43:22;3.30;;;1.60;;
77326;SDS011;66399;52.322;20.980;2023-05-16T09:47:33;3.60;;;1.80;;
77326;SDS011;66399;52.322;20.980;2023-05-16T09:51:39;2.60;;;1.70;;
77326;SDS011;66399;52.322;20.980;2023-05-16T09:55:44;3.30;;;1.60;;
77326;SDS011;66399;52.322;20.980;2023-05-16T09:59:56;3.40;;;2.00;;
77326;SDS011;66399;52.322;20.980;2023-05-16T10:04:04;3.00;;;1.70;;
77326;SDS011;66399;52.322;20.980;2023-05-16T10:08:09;2.40;;;1.70;;
77326;SDS011;66399;52.322;20.980;2023-05-16T10:12:18;3.50;;;1.80;;
77326;SDS011;66399;52.322;20.980;2023-05-16T10:16:24;3.70;;;1.90;;
77326;SDS011;66399;52.322;20.980;2023-05-16T10:20:30;2.40;;;1.50;;
77326;SDS011;66399;52.322;20.980;2023-05-16T10:28:47;2.50;;;1.60;;
77326;SDS011;66399;52.322;20.980;2023-05-16T10:32:53;2.70;;;1.50;;
77326;SDS011;66399;52.322;20.980;2023-05-16T10:36:59;3.90;;;1.90;;
77326;SDS011;66399;52.322;20.980;2023-05-16T10:41:23;3.20;;;1.80;;
77326;SDS011;66399;52.322;20.980;2023-05-16T10:49:49;4.20;;;2.00;;
77326;SDS011;66399;52.322;20.980;2023-05-16T10:54:02;2.80;;;1.80;;
77326;SDS011;66399;52.322;20.980;2023-05-16T10:58:11;3.90;;;1.70;;
77326;SDS011;66399;52.322;20.980;2023-05-16T11:07:09;2.70;;;1.70;;
77326;SDS011;66399;52.322;20.980;2023-05-16T11:25:15;2.30;;;1.40;;
77326;SDS011;66399;52.322;20.980;2023-05-16T11:33:46;3.10;;;1.50;;
77326;SDS011;66399;52.322;20.980;2023-05-16T11:38:04;3.60;;;1.80;;
77326;SDS011;66399;52.322;20.980;2023-05-16T11:42:09;4.60;;;1.90;;
77326;SDS011;66399;52.322;20.980;2023-05-16T11:55:32;3.60;;;2.10;;
77326;SDS011;66399;52.322;20.980;2023-05-16T11:59:41;3.00;;;1.80;;
77326;SDS011;66399;52.322;20.980;2023-05-16T12:03:54;4.90;;;1.70;;
77326;SDS011;66399;52.322;20.980;2023-05-16T12:08:00;3.20;;;2.00;;
77326;SDS011;66399;52.322;20.980;2023-05-16T12:12:21;4.40;;;2.20;;
77326;SDS011;66399;52.322;20.980;2023-05-16T12:16:26;2.90;;;2.00;;
77326;SDS011;66399;52.322;20.980;2023-05-16T12:24:45;2.70;;;1.70;;
77326;SDS011;66399;52.322;20.980;2023-05-16T12:28:53;3.60;;;1.80;;
77326;SDS011;66399;52.322;20.980;2023-05-16T12:37:43;2.50;;;1.80;;
77326;SDS011;66399;52.322;20.980;2023-05-16T12:41:48;4.30;;;1.80;;
77326;SDS011;66399;52.322;20.980;2023-05-16T12:46:01;3.10;;;1.80;;
77326;SDS011;66399;52.322;20.980;2023-05-16T12:50:09;2.90;;;2.10;;
77326;SDS011;66399;52.322;20.980;2023-05-16T12:54:16;3.80;;;1.90;;
77326;SDS011;66399;52.322;20.980;2023-05-16T13:07:15;3.30;;;1.80;;
77326;SDS011;66399;52.322;20.980;2023-05-16T13:11:20;3.20;;;1.90;;
77326;SDS011;66399;52.322;20.980;2023-05-16T13:24:11;4.00;;;2.10;;
77326;SDS011;66399;52.322;20.980;2023-05-16T13:28:29;3.00;;;1.90;;
77326;SDS011;66399;52.322;20.980;2023-05-16T13:32:34;2.50;;;1.80;;
77326;SDS011;66399;52.322;20.980;2023-05-16T13:41:16;4.50;;;1.90;;
77326;SDS011;66399;52.322;20.980;2023-05-16T13:45:22;4.20;;;2.10;;
77326;SDS011;66399;52.322;20.980;2023-05-16T13:54:17;3.10;;;1.80;;
77326;SDS011;66399;52.322;20.980;2023-05-16T13:58:22;3.20;;;2.10;;
77326;SDS011;66399;52.322;20.980;2023-05-16T14:02:27;3.30;;;2.00;;
77326;SDS011;66399;52.322;20.980;2023-05-16T14:10:44;3.20;;;1.80;;
77326;SDS011;66399;52.322;20.980;2023-05-16T14:14:49;2.80;;;1.90;;
77326;SDS011;66399;52.322;20.980;2023-05-16T14:27:38;2.50;;;1.90;;
77326;SDS011;66399;52.322;20.980;2023-05-16T14:31:43;3.10;;;1.90;;
77326;SDS011;66399;52.322;20.980;2023-05-16T14:49:00;3.10;;;2.20;;
77326;SDS011;66399;52.322;20.980;2023-05-16T14:53:05;3.60;;;2.10;;
77326;SDS011;66399;52.322;20.980;2023-05-16T15:01:42;2.60;;;1.90;;
77326;SDS011;66399;52.322;20.980;2023-05-16T15:06:05;2.80;;;1.90;;
77326;SDS011;66399;52.322;20.980;2023-05-16T15:14:31;2.80;;;1.90;;
77326;SDS011;66399;52.322;20.980;2023-05-16T15:18:36;2.50;;;1.80;;
77326;SDS011;66399;52.322;20.980;2023-05-16T15:22:50;3.10;;;1.80;;
77326;SDS011;66399;52.322;20.980;2023-05-16T15:26:55;3.40;;;1.90;;
77326;SDS011;66399;52.322;20.980;2023-05-16T15:31:01;3.00;;;1.70;;
77326;SDS011;66399;52.322;20.980;2023-05-16T15:35:13;2.30;;;1.50;;
77326;SDS011;66399;52.322;20.980;2023-05-16T15:39:19;3.10;;;1.90;;
77326;SDS011;66399;52.322;20.980;2023-05-16T15:43:24;3.40;;;1.90;;
77326;SDS011;66399;52.322;20.980;2023-05-16T15:47:38;2.80;;;1.80;;
77326;SDS011;66399;52.322;20.980;2023-05-16T15:51:44;4.80;;;1.70;;
77326;SDS011;66399;52.322;20.980;2023-05-16T15:56:06;2.70;;;1.50;;
77326;SDS011;66399;52.322;20.980;2023-05-16T16:00:12;2.40;;;1.70;;
77326;SDS011;66399;52.322;20.980;2023-05-16T16:04:19;2.50;;;1.70;;
77326;SDS011;66399;52.322;20.980;2023-05-16T16:08:26;3.90;;;2.20;;
77326;SDS011;66399;52.322;20.980;2023-05-16T16:16:53;4.00;;;1.80;;
77326;SDS011;66399;52.322;20.980;2023-05-16T16:20:58;3.50;;;1.80;;
77326;SDS011;66399;52.322;20.980;2023-05-16T16:38:24;2.30;;;1.60;;
77326;SDS011;66399;52.322;20.980;2023-05-16T16:42:52;2.70;;;1.70;;
77326;SDS011;66399;52.322;20.980;2023-05-16T16:48:02;3.50;;;1.80;;
77326;SDS011;66399;52.322;20.980;2023-05-16T17:05:20;3.20;;;1.80;;
77326;SDS011;66399;52.322;20.980;2023-05-16T17:09:25;2.90;;;1.60;;
77326;SDS011;66399;52.322;20.980;2023-05-16T17:13:36;3.40;;;2.20;;
77326;SDS011;66399;52.322;20.980;2023-05-16T17:17:44;2.60;;;1.80;;
77326;SDS011;66399;52.322;20.980;2023-05-16T17:22:06;3.10;;;2.00;;
77326;SDS011;66399;52.322;20.980;2023-05-16T17:26:11;3.40;;;1.80;;
77326;SDS011;66399;52.322;20.980;2023-05-16T17:48:09;3.70;;;2.20;;
77326;SDS011;66399;52.322;20.980;2023-05-16T17:52:15;3.80;;;2.10;;
77326;SDS011;66399;52.322;20.980;2023-05-16T17:56:23;4.10;;;2.60;;
77326;SDS011;66399;52.322;20.980;2023-05-16T18:00:34;6.80;;;2.40;;
77326;SDS011;66399;52.322;20.980;2023-05-16T18:04:39;3.80;;;2.10;;
77326;SDS011;66399;52.322;20.980;2023-05-16T18:08:44;4.40;;;2.30;;
77326;SDS011;66399;52.322;20.980;2023-05-16T18:12:50;4.80;;;2.00;;
77326;SDS011;66399;52.322;20.980;2023-05-16T18:16:55;4.20;;;2.10;;
77326;SDS011;66399;52.322;20.980;2023-05-16T18:21:00;3.80;;;2.40;;
77326;SDS011;66399;52.322;20.980;2023-05-16T18:25:06;3.60;;;2.20;;
77326;SDS011;66399;52.322;20.980;2023-05-16T18:29:12;5.10;;;2.20;;
77326;SDS011;66399;52.322;20.980;2023-05-16T18:33:17;4.60;;;2.50;;
77326;SDS011;66399;52.322;20.980;2023-05-16T18:37:22;5.00;;;2.20;;
77326;SDS011;66399;52.322;20.980;2023-05-16T18:41:27;3.60;;;2.30;;
77326;SDS011;66399;52.322;20.980;2023-05-16T18:45:33;4.50;;;2.40;;
77326;SDS011;66399;52.322;20.980;2023-05-16T18:49:38;3.30;;;2.30;;
77326;SDS011;66399;52.322;20.980;2023-05-16T18:53:43;4.00;;;2.60;;
77326;SDS011;66399;52.322;20.980;2023-05-16T18:57:48;5.60;;;3.20;;
77326;SDS011;66399;52.322;20.980;2023-05-16T19:01:53;5.10;;;3.50;;
77326;SDS011;66399;52.322;20.980;2023-05-16T19:05:58;4.10;;;2.60;;
77326;SDS011;66399;52.322;20.980;2023-05-16T19:10:04;6.50;;;3.00;;
77326;SDS011;66399;52.322;20.980;2023-05-16T19:14:09;7.60;;;4.10;;
77326;SDS011;66399;52.322;20.980;2023-05-16T19:18:15;9.30;;;4.40;;
77326;SDS011;66399;52.322;20.980;2023-05-16T19:22:22;5.90;;;4.10;;
77326;SDS011;66399;52.322;20.980;2023-05-16T19:26:27;7.70;;;4.70;;
77326;SDS011;66399;52.322;20.980;2023-05-16T19:30:33;13.40;;;7.80;;
77326;SDS011;66399;52.322;20.980;2023-05-16T19:34:42;17.90;;;9.60;;
77326;SDS011;66399;52.322;20.980;2023-05-16T19:38:47;14.80;;;8.80;;
77326;SDS011;66399;52.322;20.980;2023-05-16T19:42:52;15.30;;;7.80;;
77326;SDS011;66399;52.322;20.980;2023-05-16T19:46:58;9.60;;;6.20;;
77326;SDS011;66399;52.322;20.980;2023-05-16T19:51:03;12.60;;;6.70;;
77326;SDS011;66399;52.322;20.980;2023-05-16T19:55:08;15.90;;;8.30;;
77326;SDS011;66399;52.322;20.980;2023-05-16T19:59:13;31.00;;;12.10;;
77326;SDS011;66399;52.322;20.980;2023-05-16T20:03:18;58.00;;;21.30;;
77326;SDS011;66399;52.322;20.980;2023-05-16T20:07:24;50.00;;;18.20;;
77326;SDS011;66399;52.322;20.980;2023-05-16T20:11:30;57.60;;;19.20;;
77326;SDS011;66399;52.322;20.980;2023-05-16T20:15:35;77.30;;;28.70;;
77326;SDS011;66399;52.322;20.980;2023-05-16T20:19:40;84.70;;;28.90;;
77326;SDS011;66399;52.322;20.980;2023-05-16T20:23:46;48.90;;;19.70;;
77326;SDS011;66399;52.322;20.980;2023-05-16T20:27:51;39.70;;;15.50;;
77326;SDS011;66399;52.322;20.980;2023-05-16T20:31:57;25.70;;;12.50;;
77326;SDS011;66399;52.322;20.980;2023-05-16T20:36:02;16.60;;;8.50;;
77326;SDS011;66399;52.322;20.980;2023-05-16T20:40:08;16.50;;;8.10;;
77326;SDS011;66399;52.322;20.980;2023-05-16T20:44:13;13.70;;;7.00;;
77326;SDS011;66399;52.322;20.980;2023-05-16T20:48:18;11.00;;;6.40;;
77326;SDS011;66399;52.322;20.980;2023-05-16T20:52:24;17.70;;;7.80;;
77326;SDS011;66399;52.322;20.980;2023-05-16T20:56:30;21.00;;;9.60;;
77326;SDS011;66399;52.322;20.980;2023-05-16T21:00:35;27.80;;;12.70;;
77326;SDS011;66399;52.322;20.980;2023-05-16T21:04:40;38.30;;;15.80;;
77326;SDS011;66399;52.322;20.980;2023-05-16T21:08:46;29.30;;;13.40;;
77326;SDS011;66399;52.322;20.980;2023-05-16T21:12:51;25.60;;;12.10;;
77326;SDS011;66399;52.322;20.980;2023-05-16T21:16:56;25.70;;;12.90;;
77326;SDS011;66399;52.322;20.980;2023-05-16T21:21:01;30.60;;;14.00;;
77326;SDS011;66399;52.322;20.980;2023-05-16T21:25:06;41.80;;;15.90;;
77326;SDS011;66399;52.322;20.980;2023-05-16T21:29:12;39.70;;;17.30;;
77326;SDS011;66399;52.322;20.980;2023-05-16T21:33:17;25.10;;;12.70;;
77326;SDS011;66399;52.322;20.980;2023-05-16T21:37:22;23.50;;;10.80;;
77326;SDS011;66399;52.322;20.980;2023-05-16T21:41:27;20.80;;;10.40;;
77326;SDS011;66399;52.322;20.980;2023-05-16T21:45:32;13.60;;;6.80;;
77326;SDS011;66399;52.322;20.980;2023-05-16T21:49:38;11.20;;;5.90;;
77326;SDS011;66399;52.322;20.980;2023-05-16T21:53:43;10.90;;;5.90;;
77326;SDS011;66399;52.322;20.980;2023-05-16T21:57:49;9.30;;;5.10;;
77326;SDS011;66399;52.322;20.980;2023-05-16T22:01:54;13.40;;;7.50;;
77326;SDS011;66399;52.322;20.980;2023-05-16T22:05:59;9.60;;;5.20;;
77326;SDS011;66399;52.322;20.980;2023-05-16T22:10:05;13.00;;;5.50;;
77326;SDS011;66399;52.322;20.980;2023-05-16T22:14:10;6.60;;;4.10;;
77326;SDS011;66399;52.322;20.980;2023-05-16T22:18:15;5.30;;;4.00;;
77326;SDS011;66399;52.322;20.980;2023-05-16T22:22:21;8.10;;;4.70;;
77326;SDS011;66399;52.322;20.980;2023-05-16T22:26:26;7.10;;;4.00;;
77326;SDS011;66399;52.322;20.980;2023-05-16T22:30:31;6.50;;;4.30;;
77326;SDS011;66399;52.322;20.980;2023-05-16T22:34:36;6.40;;;4.30;;
77326;SDS011;66399;52.322;20.980;2023-05-16T22:38:42;8.80;;;4.70;;
77326;SDS011;66399;52.322;20.980;2023-05-16T22:42:47;7.40;;;4.90;;
77326;SDS011;66399;52.322;20.980;2023-05-16T22:46:53;7.20;;;4.40;;
77326;SDS011;66399;52.322;20.980;2023-05-16T22:50:58;11.70;;;6.00;;
77326;SDS011;66399;52.322;20.980;2023-05-16T22:55:05;8.10;;;5.00;;
77326;SDS011;66399;52.322;20.980;2023-05-16T22:59:10;8.50;;;5.10;;
77326;SDS011;66399;52.322;20.980;2023-05-16T23:03:15;9.60;;;5.50;;
77326;SDS011;66399;52.322;20.980;2023-05-16T23:07:20;10.30;;;5.60;;
77326;SDS011;66399;52.322;20.980;2023-05-16T23:11:26;10.60;;;5.70;;
77326;SDS011;66399;52.322;20.980;2023-05-16T23:15:31;10.90;;;5.80;;
77326;SDS011;66399;52.322;20.980;2023-05-16T23:19:36;14.00;;;6.80;;
77326;SDS011;66399;52.322;20.980;2023-05-16T23:23:41;16.10;;;9.30;;
77326;SDS011;66399;52.322;20.980;2023-05-16T23:27:46;18.80;;;11.10;;
77326;SDS011;66399;52.322;20.980;2023-05-16T23:31:52;17.90;;;9.00;;
77326;SDS011;66399;52.322;20.980;2023-05-16T23:35:57;12.70;;;7.70;;
77326;SDS011;66399;52.322;20.980;2023-05-16T23:40:02;13.00;;;7.20;;
77326;SDS011;66399;52.322;20.980;2023-05-16T23:44:07;9.60;;;6.90;;
77326;SDS011;66399;52.322;20.980;2023-05-16T23:48:12;9.60;;;6.30;;
77326;SDS011;66399;52.322;20.980;2023-05-16T23:52:18;10.60;;;6.50;;
77326;SDS011;66399;52.322;20.980;2023-05-16T23:56:23;9.20;;;6.50;;
